sensor_id;sensor_type;location;lat;lon;timestamp;temperature;humidity
16513;DHT22;8369;48.030;11.598;2022-07-09T00:02:23;13.80;99.90
16513;DHT22;8369;48.030;11.598;2022-07-09T00:04:50;13.70;99.90
16513;DHT22;8369;48.030;11.598;2022-07-09T00:07:16;13.70;99.90
16513;DHT22;8369;48.030;11.598;2022-07-09T00:09:42;13.70;99.90
16513;DHT22;8369;48.030;11.598;2022-07-09T00:12:08;13.70;99.90
16513;DHT22;8369;48.030;11.598;2022-07-09T00:14:34;13.70;99.90
16513;DHT22;8369;48.030;11.598;2022-07-09T00:17:01;13.70;99.90
16513;DHT22;8369;48.030;11.598;2022-07-09T00:19:27;13.70;99.90
16513;DHT22;8369;48.030;11.598;2022-07-09T00:21:53;13.70;99.90
16513;DHT22;8369;48.030;11.598;2022-07-09T00:24:19;13.70;99.90
16513;DHT22;8369;48.030;11.598;2022-07-09T00:26:45;13.70;99.90
16513;DHT22;8369;48.030;11.598;2022-07-09T00:29:11;13.80;99.90
16513;DHT22;8369;48.030;11.598;2022-07-09T00:31:37;13.80;99.90
16513;DHT22;8369;48.030;11.598;2022-07-09T00:34:03;13.80;99.90
16513;DHT22;8369;48.030;11.598;2022-07-09T00:36:30;13.80;99.90
16513;DHT22;8369;48.030;11.598;2022-07-09T00:38:56;13.80;99.90
16513;DHT22;8369;48.030;11.598;2022-07-09T00:41:22;13.80;99.90
16513;DHT22;8369;48.030;11.598;2022-07-09T00:43:49;13.80;99.90
16513;DHT22;8369;48.030;11.598;2022-07-09T00:46:16;13.80;99.90
16513;DHT22;8369;48.030;11.598;2022-07-09T00:48:42;13.70;99.90
16513;DHT22;8369;48.030;11.598;2022-07-09T00:51:09;13.70;99.90
16513;DHT22;8369;48.030;11.598;2022-07-09T00:53:37;13.70;99.90
16513;DHT22;8369;48.030;11.598;2022-07-09T00:56:04;13.70;99.90
16513;DHT22;8369;48.030;11.598;2022-07-09T00:58:31;13.70;99.90
16513;DHT22;8369;48.030;11.598;2022-07-09T01:00:57;13.70;99.90
16513;DHT22;8369;48.030;11.598;2022-07-09T01:03:24;13.70;99.90
16513;DHT22;8369;48.030;11.598;2022-07-09T01:05:50;13.70;99.90
16513;DHT22;8369;48.030;11.598;2022-07-09T01:08:16;13.60;99.90
16513;DHT22;8369;48.030;11.598;2022-07-09T01:10:42;13.60;99.90
16513;DHT22;8369;48.030;11.598;2022-07-09T01:13:09;13.60;99.90
16513;DHT22;8369;48.030;11.598;2022-07-09T01:15:35;13.60;99.90
16513;DHT22;8369;48.030;11.598;2022-07-09T01:18:01;13.60;99.90
16513;DHT22;8369;48.030;11.598;2022-07-09T01:20:28;13.60;99.90
16513;DHT22;8369;48.030;11.598;2022-07-09T01:22:58;13.60;99.90
16513;DHT22;8369;48.030;11.598;2022-07-09T01:25:40;13.50;99.90
16513;DHT22;8369;48.030;11.598;2022-07-09T01:28:08;13.50;99.90
16513;DHT22;8369;48.030;11.598;2022-07-09T01:30:36;13.50;99.90
16513;DHT22;8369;48.030;11.598;2022-07-09T01:33:03;13.50;99.90
16513;DHT22;8369;48.030;11.598;2022-07-09T01:35:30;13.50;99.90
16513;DHT22;8369;48.030;11.598;2022-07-09T01:37:56;13.50;99.90
16513;DHT22;8369;48.030;11.598;2022-07-09T01:40:22;13.40;99.90
16513;DHT22;8369;48.030;11.598;2022-07-09T01:42:49;13.40;99.90
16513;DHT22;8369;48.030;11.598;2022-07-09T01:45:16;13.40;99.90
16513;DHT22;8369;48.030;11.598;2022-07-09T01:47:42;13.30;99.90
16513;DHT22;8369;48.030;11.598;2022-07-09T01:50:09;13.30;99.90
16513;DHT22;8369;48.030;11.598;2022-07-09T01:52:35;13.30;99.90
16513;DHT22;8369;48.030;11.598;2022-07-09T01:55:01;13.30;99.90
16513;DHT22;8369;48.030;11.598;2022-07-09T01:57:27;13.20;99.90
16513;DHT22;8369;48.030;11.598;2022-07-09T01:59:54;13.20;99.90
16513;DHT22;8369;48.030;11.598;2022-07-09T02:02:20;13.20;99.90
16513;DHT22;8369;48.030;11.598;2022-07-09T02:04:46;13.20;99.90
16513;DHT22;8369;48.030;11.598;2022-07-09T02:07:13;13.20;99.90
16513;DHT22;8369;48.030;11.598;2022-07-09T02:09:40;13.20;99.90
16513;DHT22;8369;48.030;11.598;2022-07-09T02:12:06;13.20;99.90
16513;DHT22;8369;48.030;11.598;2022-07-09T02:14:32;13.20;99.90
16513;DHT22;8369;48.030;11.598;2022-07-09T02:16:58;13.20;99.90
16513;DHT22;8369;48.030;11.598;2022-07-09T02:19:25;13.20;99.90
16513;DHT22;8369;48.030;11.598;2022-07-09T02:21:51;13.20;99.90
16513;DHT22;8369;48.030;11.598;2022-07-09T02:24:17;13.30;99.90
16513;DHT22;8369;48.030;11.598;2022-07-09T02:26:43;13.30;99.90
16513;DHT22;8369;48.030;11.598;2022-07-09T02:29:10;13.30;99.90
16513;DHT22;8369;48.030;11.598;2022-07-09T02:31:36;13.30;99.90
16513;DHT22;8369;48.030;11.598;2022-07-09T02:34:02;13.30;99.90
16513;DHT22;8369;48.030;11.598;2022-07-09T02:36:28;13.30;99.90
16513;DHT22;8369;48.030;11.598;2022-07-09T02:38:54;13.30;99.90
16513;DHT22;8369;48.030;11.598;2022-07-09T02:41:20;13.40;99.90
16513;DHT22;8369;48.030;11.598;2022-07-09T02:43:47;13.40;99.90
16513;DHT22;8369;48.030;11.598;2022-07-09T02:46:13;13.50;99.90
16513;DHT22;8369;48.030;11.598;2022-07-09T02:48:39;13.50;99.90
16513;DHT22;8369;48.030;11.598;2022-07-09T02:51:05;13.60;99.90
16513;DHT22;8369;48.030;11.598;2022-07-09T02:53:31;13.60;99.90
16513;DHT22;8369;48.030;11.598;2022-07-09T02:55:58;13.70;99.90
16513;DHT22;8369;48.030;11.598;2022-07-09T02:58:24;13.70;99.90
16513;DHT22;8369;48.030;11.598;2022-07-09T03:00:50;13.80;99.90
16513;DHT22;8369;48.030;11.598;2022-07-09T03:03:16;13.90;99.90
16513;DHT22;8369;48.030;11.598;2022-07-09T03:05:42;13.90;99.90
16513;DHT22;8369;48.030;11.598;2022-07-09T03:08:09;14.00;99.90
16513;DHT22;8369;48.030;11.598;2022-07-09T03:10:44;14.00;99.90
16513;DHT22;8369;48.030;11.598;2022-07-09T03:13:12;14.10;99.90
16513;DHT22;8369;48.030;11.598;2022-07-09T03:15:38;14.10;99.90
16513;DHT22;8369;48.030;11.598;2022-07-09T03:18:04;14.20;99.90
16513;DHT22;8369;48.030;11.598;2022-07-09T03:20:34;14.20;99.90
16513;DHT22;8369;48.030;11.598;2022-07-09T03:23:04;14.20;99.90
16513;DHT22;8369;48.030;11.598;2022-07-09T03:25:31;14.30;99.90
16513;DHT22;8369;48.030;11.598;2022-07-09T03:27:58;14.30;99.90
16513;DHT22;8369;48.030;11.598;2022-07-09T03:30:24;14.40;99.90
16513;DHT22;8369;48.030;11.598;2022-07-09T03:32:51;14.40;99.90
16513;DHT22;8369;48.030;11.598;2022-07-09T03:35:17;14.40;99.90
16513;DHT22;8369;48.030;11.598;2022-07-09T03:37:44;14.50;99.90
16513;DHT22;8369;48.030;11.598;2022-07-09T03:40:12;14.50;99.90
16513;DHT22;8369;48.030;11.598;2022-07-09T03:42:38;14.50;99.90
16513;DHT22;8369;48.030;11.598;2022-07-09T03:45:05;14.60;99.90
16513;DHT22;8369;48.030;11.598;2022-07-09T03:47:31;14.60;99.90
16513;DHT22;8369;48.030;11.598;2022-07-09T03:49:58;14.70;99.90
16513;DHT22;8369;48.030;11.598;2022-07-09T03:52:25;14.70;99.90
16513;DHT22;8369;48.030;11.598;2022-07-09T03:54:51;14.70;99.90
16513;DHT22;8369;48.030;11.598;2022-07-09T03:57:19;14.70;99.90
16513;DHT22;8369;48.030;11.598;2022-07-09T03:59:45;14.70;99.90
16513;DHT22;8369;48.030;11.598;2022-07-09T04:02:14;14.70;99.90
16513;DHT22;8369;48.030;11.598;2022-07-09T04:04:41;14.80;99.90
16513;DHT22;8369;48.030;11.598;2022-07-09T04:07:08;14.80;99.90
16513;DHT22;8369;48.030;11.598;2022-07-09T04:09:35;14.80;99.90
16513;DHT22;8369;48.030;11.598;2022-07-09T04:12:01;14.80;99.90
16513;DHT22;8369;48.030;11.598;2022-07-09T04:14:27;14.80;99.90
16513;DHT22;8369;48.030;11.598;2022-07-09T04:16:53;14.90;99.90
16513;DHT22;8369;48.030;11.598;2022-07-09T04:19:20;14.90;99.90
16513;DHT22;8369;48.030;11.598;2022-07-09T04:21:46;14.90;99.90
16513;DHT22;8369;48.030;11.598;2022-07-09T04:24:13;15.00;99.90
16513;DHT22;8369;48.030;11.598;2022-07-09T04:26:42;15.00;99.90
16513;DHT22;8369;48.030;11.598;2022-07-09T04:29:09;15.00;99.90
16513;DHT22;8369;48.030;11.598;2022-07-09T04:31:37;15.10;99.90
16513;DHT22;8369;48.030;11.598;2022-07-09T04:34:04;15.10;99.90
16513;DHT22;8369;48.030;11.598;2022-07-09T04:36:30;15.10;99.90
16513;DHT22;8369;48.030;11.598;2022-07-09T04:38:57;15.20;99.90
16513;DHT22;8369;48.030;11.598;2022-07-09T04:41:24;15.20;99.90
16513;DHT22;8369;48.030;11.598;2022-07-09T04:43:51;15.20;99.90
16513;DHT22;8369;48.030;11.598;2022-07-09T04:46:17;15.30;99.90
16513;DHT22;8369;48.030;11.598;2022-07-09T04:48:43;15.30;99.90
16513;DHT22;8369;48.030;11.598;2022-07-09T04:51:13;15.30;99.90
16513;DHT22;8369;48.030;11.598;2022-07-09T04:53:39;15.30;99.90
16513;DHT22;8369;48.030;11.598;2022-07-09T04:56:05;15.40;99.90
16513;DHT22;8369;48.030;11.598;2022-07-09T04:58:33;15.40;99.90
16513;DHT22;8369;48.030;11.598;2022-07-09T05:00:59;15.40;99.90
16513;DHT22;8369;48.030;11.598;2022-07-09T05:03:25;15.50;99.90
16513;DHT22;8369;48.030;11.598;2022-07-09T05:05:52;15.50;99.90
16513;DHT22;8369;48.030;11.598;2022-07-09T05:08:18;15.60;99.90
16513;DHT22;8369;48.030;11.598;2022-07-09T05:10:45;15.60;99.90
16513;DHT22;8369;48.030;11.598;2022-07-09T05:13:11;15.60;99.90
16513;DHT22;8369;48.030;11.598;2022-07-09T05:15:37;15.70;99.90
16513;DHT22;8369;48.030;11.598;2022-07-09T05:18:05;15.70;99.90
16513;DHT22;8369;48.030;11.598;2022-07-09T05:20:32;15.70;99.90
16513;DHT22;8369;48.030;11.598;2022-07-09T05:22:58;15.80;99.90
16513;DHT22;8369;48.030;11.598;2022-07-09T05:25:25;15.80;99.90
16513;DHT22;8369;48.030;11.598;2022-07-09T05:27:52;15.90;99.90
16513;DHT22;8369;48.030;11.598;2022-07-09T05:30:19;15.90;99.90
16513;DHT22;8369;48.030;11.598;2022-07-09T05:32:45;15.90;99.90
16513;DHT22;8369;48.030;11.598;2022-07-09T05:35:12;16.00;99.90
16513;DHT22;8369;48.030;11.598;2022-07-09T05:37:42;16.00;99.90
16513;DHT22;8369;48.030;11.598;2022-07-09T05:40:10;16.10;99.80
16513;DHT22;8369;48.030;11.598;2022-07-09T05:42:37;16.10;99.90
16513;DHT22;8369;48.030;11.598;2022-07-09T05:45:04;16.20;99.90
16513;DHT22;8369;48.030;11.598;2022-07-09T05:47:30;16.20;99.50
16513;DHT22;8369;48.030;11.598;2022-07-09T05:49:57;16.20;99.90
16513;DHT22;8369;48.030;11.598;2022-07-09T05:52:23;16.20;99.90
16513;DHT22;8369;48.030;11.598;2022-07-09T05:54:50;16.30;99.60
16513;DHT22;8369;48.030;11.598;2022-07-09T05:57:17;16.30;99.90
16513;DHT22;8369;48.030;11.598;2022-07-09T05:59:44;16.40;99.90
16513;DHT22;8369;48.030;11.598;2022-07-09T06:02:20;16.50;99.70
16513;DHT22;8369;48.030;11.598;2022-07-09T06:04:47;16.50;99.30
16513;DHT22;8369;48.030;11.598;2022-07-09T06:07:15;16.60;99.40
16513;DHT22;8369;48.030;11.598;2022-07-09T06:09:42;16.70;99.20
16513;DHT22;8369;48.030;11.598;2022-07-09T06:12:08;16.70;99.20
16513;DHT22;8369;48.030;11.598;2022-07-09T06:14:35;16.80;99.80
16513;DHT22;8369;48.030;11.598;2022-07-09T06:17:01;16.90;99.40
16513;DHT22;8369;48.030;11.598;2022-07-09T06:19:35;17.00;98.80
16513;DHT22;8369;48.030;11.598;2022-07-09T06:22:02;17.00;99.00
16513;DHT22;8369;48.030;11.598;2022-07-09T06:24:29;17.10;99.30
16513;DHT22;8369;48.030;11.598;2022-07-09T06:26:58;17.20;99.00
16513;DHT22;8369;48.030;11.598;2022-07-09T06:29:23;17.30;98.60
16513;DHT22;8369;48.030;11.598;2022-07-09T06:31:50;17.40;97.90
16513;DHT22;8369;48.030;11.598;2022-07-09T06:34:25;17.40;97.50
16513;DHT22;8369;48.030;11.598;2022-07-09T06:36:52;17.50;97.40
16513;DHT22;8369;48.030;11.598;2022-07-09T06:39:21;17.60;98.00
16513;DHT22;8369;48.030;11.598;2022-07-09T06:42:06;17.70;98.00
16513;DHT22;8369;48.030;11.598;2022-07-09T06:44:36;17.80;97.80
16513;DHT22;8369;48.030;11.598;2022-07-09T06:47:03;17.80;97.80
16513;DHT22;8369;48.030;11.598;2022-07-09T06:49:29;17.90;97.80
16513;DHT22;8369;48.030;11.598;2022-07-09T06:51:56;18.00;97.50
16513;DHT22;8369;48.030;11.598;2022-07-09T06:54:27;18.10;97.50
16513;DHT22;8369;48.030;11.598;2022-07-09T06:56:56;18.20;97.20
16513;DHT22;8369;48.030;11.598;2022-07-09T06:59:25;18.30;96.00
16513;DHT22;8369;48.030;11.598;2022-07-09T07:01:55;18.30;95.00
16513;DHT22;8369;48.030;11.598;2022-07-09T07:04:21;18.30;95.00
16513;DHT22;8369;48.030;11.598;2022-07-09T07:06:48;18.40;94.40
16513;DHT22;8369;48.030;11.598;2022-07-09T07:09:30;18.40;94.60
16513;DHT22;8369;48.030;11.598;2022-07-09T07:11:57;18.40;94.40
16513;DHT22;8369;48.030;11.598;2022-07-09T07:14:23;18.40;94.60
16513;DHT22;8369;48.030;11.598;2022-07-09T07:16:50;18.30;95.10
16513;DHT22;8369;48.030;11.598;2022-07-09T07:19:16;18.30;95.80
16513;DHT22;8369;48.030;11.598;2022-07-09T07:21:58;18.30;96.20
16513;DHT22;8369;48.030;11.598;2022-07-09T07:24:28;18.40;96.00
16513;DHT22;8369;48.030;11.598;2022-07-09T07:26:56;18.40;96.40
16513;DHT22;8369;48.030;11.598;2022-07-09T07:29:25;18.40;96.50
16513;DHT22;8369;48.030;11.598;2022-07-09T07:31:52;18.40;96.70
16513;DHT22;8369;48.030;11.598;2022-07-09T07:34:19;18.40;96.90
16513;DHT22;8369;48.030;11.598;2022-07-09T07:36:48;18.50;96.80
16513;DHT22;8369;48.030;11.598;2022-07-09T07:39:16;18.50;96.80
16513;DHT22;8369;48.030;11.598;2022-07-09T07:41:50;18.60;96.70
16513;DHT22;8369;48.030;11.598;2022-07-09T07:44:16;18.60;95.80
16513;DHT22;8369;48.030;11.598;2022-07-09T07:46:43;18.60;96.00
16513;DHT22;8369;48.030;11.598;2022-07-09T07:49:09;18.70;96.30
16513;DHT22;8369;48.030;11.598;2022-07-09T07:51:35;18.70;96.50
16513;DHT22;8369;48.030;11.598;2022-07-09T07:54:01;18.80;96.70
16513;DHT22;8369;48.030;11.598;2022-07-09T07:56:27;18.80;96.50
16513;DHT22;8369;48.030;11.598;2022-07-09T07:58:53;18.90;96.20
16513;DHT22;8369;48.030;11.598;2022-07-09T08:01:25;19.00;96.10
16513;DHT22;8369;48.030;11.598;2022-07-09T08:03:55;19.00;95.80
16513;DHT22;8369;48.030;11.598;2022-07-09T08:06:21;19.10;94.80
16513;DHT22;8369;48.030;11.598;2022-07-09T08:08:50;19.20;95.40
16513;DHT22;8369;48.030;11.598;2022-07-09T08:11:17;19.20;94.60
16513;DHT22;8369;48.030;11.598;2022-07-09T08:13:43;19.30;95.00
16513;DHT22;8369;48.030;11.598;2022-07-09T08:16:09;19.40;94.80
16513;DHT22;8369;48.030;11.598;2022-07-09T08:18:35;19.40;94.20
16513;DHT22;8369;48.030;11.598;2022-07-09T08:21:02;19.50;94.00
16513;DHT22;8369;48.030;11.598;2022-07-09T08:23:28;19.60;93.30
16513;DHT22;8369;48.030;11.598;2022-07-09T08:25:54;19.60;93.20
16513;DHT22;8369;48.030;11.598;2022-07-09T08:28:20;19.70;92.60
16513;DHT22;8369;48.030;11.598;2022-07-09T08:30:47;19.70;91.20
16513;DHT22;8369;48.030;11.598;2022-07-09T08:33:13;19.70;91.20
16513;DHT22;8369;48.030;11.598;2022-07-09T08:35:39;19.80;90.10
16513;DHT22;8369;48.030;11.598;2022-07-09T08:38:05;19.80;89.70
16513;DHT22;8369;48.030;11.598;2022-07-09T08:40:31;19.80;90.50
16513;DHT22;8369;48.030;11.598;2022-07-09T08:43:02;19.90;89.80
16513;DHT22;8369;48.030;11.598;2022-07-09T08:45:30;20.10;89.20
16513;DHT22;8369;48.030;11.598;2022-07-09T08:47:57;20.30;88.90
16513;DHT22;8369;48.030;11.598;2022-07-09T08:50:24;20.30;88.30
16513;DHT22;8369;48.030;11.598;2022-07-09T08:52:51;20.40;88.60
16513;DHT22;8369;48.030;11.598;2022-07-09T08:55:19;20.50;86.30
16513;DHT22;8369;48.030;11.598;2022-07-09T08:57:46;20.50;87.10
16513;DHT22;8369;48.030;11.598;2022-07-09T09:00:12;20.60;86.20
16513;DHT22;8369;48.030;11.598;2022-07-09T09:02:45;20.70;83.40
16513;DHT22;8369;48.030;11.598;2022-07-09T09:05:15;20.70;83.90
16513;DHT22;8369;48.030;11.598;2022-07-09T09:07:42;20.80;84.20
16513;DHT22;8369;48.030;11.598;2022-07-09T09:10:23;20.90;84.10
16513;DHT22;8369;48.030;11.598;2022-07-09T09:12:59;21.10;82.20
16513;DHT22;8369;48.030;11.598;2022-07-09T09:15:27;21.10;74.60
16513;DHT22;8369;48.030;11.598;2022-07-09T09:17:53;21.20;77.40
16513;DHT22;8369;48.030;11.598;2022-07-09T09:20:19;21.30;74.70
16513;DHT22;8369;48.030;11.598;2022-07-09T09:22:52;21.40;74.10
16513;DHT22;8369;48.030;11.598;2022-07-09T09:25:36;21.40;72.60
16513;DHT22;8369;48.030;11.598;2022-07-09T09:28:03;21.50;73.90
16513;DHT22;8369;48.030;11.598;2022-07-09T09:30:30;21.70;73.50
16513;DHT22;8369;48.030;11.598;2022-07-09T09:33:05;21.80;70.90
16513;DHT22;8369;48.030;11.598;2022-07-09T09:35:35;21.80;71.50
16513;DHT22;8369;48.030;11.598;2022-07-09T09:38:12;21.80;72.30
16513;DHT22;8369;48.030;11.598;2022-07-09T09:40:44;21.90;73.20
16513;DHT22;8369;48.030;11.598;2022-07-09T09:43:11;22.10;72.10
16513;DHT22;8369;48.030;11.598;2022-07-09T09:45:41;22.10;70.90
16513;DHT22;8369;48.030;11.598;2022-07-09T09:48:07;22.20;70.00
16513;DHT22;8369;48.030;11.598;2022-07-09T09:50:33;22.20;71.20
16513;DHT22;8369;48.030;11.598;2022-07-09T09:53:01;22.30;71.70
16513;DHT22;8369;48.030;11.598;2022-07-09T09:55:28;22.40;71.40
16513;DHT22;8369;48.030;11.598;2022-07-09T09:57:54;22.50;71.20
16513;DHT22;8369;48.030;11.598;2022-07-09T10:00:21;22.60;71.50
16513;DHT22;8369;48.030;11.598;2022-07-09T10:02:48;22.70;70.10
16513;DHT22;8369;48.030;11.598;2022-07-09T10:05:16;22.80;69.50
16513;DHT22;8369;48.030;11.598;2022-07-09T10:07:43;22.80;68.60
16513;DHT22;8369;48.030;11.598;2022-07-09T10:10:18;22.90;68.30
16513;DHT22;8369;48.030;11.598;2022-07-09T10:12:44;23.00;68.00
16513;DHT22;8369;48.030;11.598;2022-07-09T10:15:26;23.00;67.10
16513;DHT22;8369;48.030;11.598;2022-07-09T10:17:53;23.10;68.90
16513;DHT22;8369;48.030;11.598;2022-07-09T10:20:33;23.20;69.20
16513;DHT22;8369;48.030;11.598;2022-07-09T10:23:00;23.40;66.80
16513;DHT22;8369;48.030;11.598;2022-07-09T10:25:30;23.50;66.30
16513;DHT22;8369;48.030;11.598;2022-07-09T10:27:57;23.50;65.40
16513;DHT22;8369;48.030;11.598;2022-07-09T10:30:33;23.50;65.40
16513;DHT22;8369;48.030;11.598;2022-07-09T10:35:38;23.50;66.80
16513;DHT22;8369;48.030;11.598;2022-07-09T10:38:12;23.60;67.90
16513;DHT22;8369;48.030;11.598;2022-07-09T10:40:47;23.70;66.60
16513;DHT22;8369;48.030;11.598;2022-07-09T10:43:14;23.80;65.30
16513;DHT22;8369;48.030;11.598;2022-07-09T10:45:44;23.80;65.40
16513;DHT22;8369;48.030;11.598;2022-07-09T10:48:13;23.70;62.70
16513;DHT22;8369;48.030;11.598;2022-07-09T10:50:42;23.40;63.60
16513;DHT22;8369;48.030;11.598;2022-07-09T10:53:09;23.30;63.30
16513;DHT22;8369;48.030;11.598;2022-07-09T10:55:36;23.20;64.80
16513;DHT22;8369;48.030;11.598;2022-07-09T10:58:03;23.10;62.70
16513;DHT22;8369;48.030;11.598;2022-07-09T11:00:33;22.90;63.10
16513;DHT22;8369;48.030;11.598;2022-07-09T11:03:05;22.90;65.30
16513;DHT22;8369;48.030;11.598;2022-07-09T11:05:33;22.90;66.50
16513;DHT22;8369;48.030;11.598;2022-07-09T11:10:28;22.80;62.50
16513;DHT22;8369;48.030;11.598;2022-07-09T11:12:56;22.80;64.80
16513;DHT22;8369;48.030;11.598;2022-07-09T11:15:24;22.90;63.40
16513;DHT22;8369;48.030;11.598;2022-07-09T11:17:57;23.00;63.40
16513;DHT22;8369;48.030;11.598;2022-07-09T11:20:23;23.20;63.70
16513;DHT22;8369;48.030;11.598;2022-07-09T11:22:50;23.30;64.20
16513;DHT22;8369;48.030;11.598;2022-07-09T11:25:16;23.50;63.70
16513;DHT22;8369;48.030;11.598;2022-07-09T11:27:43;23.70;61.30
16513;DHT22;8369;48.030;11.598;2022-07-09T11:30:13;23.80;61.80
16513;DHT22;8369;48.030;11.598;2022-07-09T11:32:43;23.80;62.40
16513;DHT22;8369;48.030;11.598;2022-07-09T11:35:11;23.80;61.60
16513;DHT22;8369;48.030;11.598;2022-07-09T11:37:44;23.70;63.00
16513;DHT22;8369;48.030;11.598;2022-07-09T11:40:18;23.60;64.20
16513;DHT22;8369;48.030;11.598;2022-07-09T11:42:44;23.50;64.80
16513;DHT22;8369;48.030;11.598;2022-07-09T11:45:11;23.40;63.60
16513;DHT22;8369;48.030;11.598;2022-07-09T11:47:40;23.30;63.30
16513;DHT22;8369;48.030;11.598;2022-07-09T11:52:34;23.30;64.80
16513;DHT22;8369;48.030;11.598;2022-07-09T11:55:05;23.40;65.10
16513;DHT22;8369;48.030;11.598;2022-07-09T11:57:34;23.50;65.00
16513;DHT22;8369;48.030;11.598;2022-07-09T12:00:03;23.60;64.50
16513;DHT22;8369;48.030;11.598;2022-07-09T12:02:34;23.70;64.00
16513;DHT22;8369;48.030;11.598;2022-07-09T12:05:05;23.80;62.50
16513;DHT22;8369;48.030;11.598;2022-07-09T12:07:33;23.80;63.30
16513;DHT22;8369;48.030;11.598;2022-07-09T12:10:05;24.00;63.90
16513;DHT22;8369;48.030;11.598;2022-07-09T12:12:33;24.10;62.70
16513;DHT22;8369;48.030;11.598;2022-07-09T12:15:02;24.20;61.90
16513;DHT22;8369;48.030;11.598;2022-07-09T12:17:29;24.20;62.20
16513;DHT22;8369;48.030;11.598;2022-07-09T12:19:57;24.30;62.80
16513;DHT22;8369;48.030;11.598;2022-07-09T12:22:27;24.40;61.80
16513;DHT22;8369;48.030;11.598;2022-07-09T12:24:53;24.50;61.90
16513;DHT22;8369;48.030;11.598;2022-07-09T12:27:29;24.50;59.90
16513;DHT22;8369;48.030;11.598;2022-07-09T12:29:55;24.60;61.00
16513;DHT22;8369;48.030;11.598;2022-07-09T12:32:21;24.60;61.00
16513;DHT22;8369;48.030;11.598;2022-07-09T12:34:47;24.50;60.70
16513;DHT22;8369;48.030;11.598;2022-07-09T12:37:13;24.50;60.40
16513;DHT22;8369;48.030;11.598;2022-07-09T12:39:40;24.50;59.90
16513;DHT22;8369;48.030;11.598;2022-07-09T12:42:07;24.50;60.90
16513;DHT22;8369;48.030;11.598;2022-07-09T12:44:33;24.60;61.80
16513;DHT22;8369;48.030;11.598;2022-07-09T12:47:00;24.80;61.30
16513;DHT22;8369;48.030;11.598;2022-07-09T12:49:26;25.00;60.40
16513;DHT22;8369;48.030;11.598;2022-07-09T12:51:52;25.00;60.90
16513;DHT22;8369;48.030;11.598;2022-07-09T12:54:18;25.00;61.60
16513;DHT22;8369;48.030;11.598;2022-07-09T12:56:44;25.10;61.30
16513;DHT22;8369;48.030;11.598;2022-07-09T12:59:10;25.10;60.90
16513;DHT22;8369;48.030;11.598;2022-07-09T13:01:35;25.00;61.60
16513;DHT22;8369;48.030;11.598;2022-07-09T13:04:01;25.00;60.40
16513;DHT22;8369;48.030;11.598;2022-07-09T13:06:27;24.90;61.30
16513;DHT22;8369;48.030;11.598;2022-07-09T13:09:01;24.90;61.60
16513;DHT22;8369;48.030;11.598;2022-07-09T13:11:27;24.90;61.00
16513;DHT22;8369;48.030;11.598;2022-07-09T13:13:53;24.90;61.20
16513;DHT22;8369;48.030;11.598;2022-07-09T13:16:20;25.00;60.90
16513;DHT22;8369;48.030;11.598;2022-07-09T13:18:46;25.00;59.50
16513;DHT22;8369;48.030;11.598;2022-07-09T13:21:11;25.00;59.70
16513;DHT22;8369;48.030;11.598;2022-07-09T13:23:37;25.00;60.20
16513;DHT22;8369;48.030;11.598;2022-07-09T13:26:04;25.00;60.70
16513;DHT22;8369;48.030;11.598;2022-07-09T13:28:30;24.80;60.40
16513;DHT22;8369;48.030;11.598;2022-07-09T13:30:56;24.60;58.90
16513;DHT22;8369;48.030;11.598;2022-07-09T13:33:22;24.50;59.70
16513;DHT22;8369;48.030;11.598;2022-07-09T13:35:48;24.30;60.90
16513;DHT22;8369;48.030;11.598;2022-07-09T13:38:17;24.30;61.30
16513;DHT22;8369;48.030;11.598;2022-07-09T13:40:43;24.20;61.20
16513;DHT22;8369;48.030;11.598;2022-07-09T13:43:09;24.10;61.60
16513;DHT22;8369;48.030;11.598;2022-07-09T13:45:34;24.00;60.90
16513;DHT22;8369;48.030;11.598;2022-07-09T13:48:00;23.80;61.90
16513;DHT22;8369;48.030;11.598;2022-07-09T13:50:26;23.70;61.60
16513;DHT22;8369;48.030;11.598;2022-07-09T13:52:52;23.70;62.40
16513;DHT22;8369;48.030;11.598;2022-07-09T13:55:18;23.80;62.70
16513;DHT22;8369;48.030;11.598;2022-07-09T13:57:44;23.80;61.80
16513;DHT22;8369;48.030;11.598;2022-07-09T14:00:10;23.80;62.40
16513;DHT22;8369;48.030;11.598;2022-07-09T14:02:38;23.80;62.10
16513;DHT22;8369;48.030;11.598;2022-07-09T14:05:05;23.80;63.00
16513;DHT22;8369;48.030;11.598;2022-07-09T14:07:31;23.90;63.10
16513;DHT22;8369;48.030;11.598;2022-07-09T14:09:57;23.90;62.70
16513;DHT22;8369;48.030;11.598;2022-07-09T14:12:24;23.80;62.70
16513;DHT22;8369;48.030;11.598;2022-07-09T14:14:53;23.80;63.00
16513;DHT22;8369;48.030;11.598;2022-07-09T14:17:19;23.80;63.00
16513;DHT22;8369;48.030;11.598;2022-07-09T14:19:45;23.80;62.80
16513;DHT22;8369;48.030;11.598;2022-07-09T14:22:11;23.90;63.30
16513;DHT22;8369;48.030;11.598;2022-07-09T14:24:37;23.90;63.00
16513;DHT22;8369;48.030;11.598;2022-07-09T14:27:03;24.00;63.10
16513;DHT22;8369;48.030;11.598;2022-07-09T14:29:29;24.00;61.80
16513;DHT22;8369;48.030;11.598;2022-07-09T14:31:59;23.90;62.40
16513;DHT22;8369;48.030;11.598;2022-07-09T14:34:25;23.80;62.50
16513;DHT22;8369;48.030;11.598;2022-07-09T14:36:51;23.80;63.30
16513;DHT22;8369;48.030;11.598;2022-07-09T14:39:19;23.70;63.30
16513;DHT22;8369;48.030;11.598;2022-07-09T14:41:47;23.70;63.40
16513;DHT22;8369;48.030;11.598;2022-07-09T14:44:14;23.70;64.00
16513;DHT22;8369;48.030;11.598;2022-07-09T14:46:41;23.80;63.90
16513;DHT22;8369;48.030;11.598;2022-07-09T14:49:10;23.80;63.10
16513;DHT22;8369;48.030;11.598;2022-07-09T14:51:42;23.80;63.30
16513;DHT22;8369;48.030;11.598;2022-07-09T14:54:07;23.80;63.40
16513;DHT22;8369;48.030;11.598;2022-07-09T14:56:33;23.80;63.00
16513;DHT22;8369;48.030;11.598;2022-07-09T14:59:00;23.80;63.30
16513;DHT22;8369;48.030;11.598;2022-07-09T15:01:27;23.80;62.40
16513;DHT22;8369;48.030;11.598;2022-07-09T15:03:54;23.70;63.10
16513;DHT22;8369;48.030;11.598;2022-07-09T15:06:23;23.70;63.40
16513;DHT22;8369;48.030;11.598;2022-07-09T15:08:53;23.60;63.90
16513;DHT22;8369;48.030;11.598;2022-07-09T15:11:22;23.50;64.40
16513;DHT22;8369;48.030;11.598;2022-07-09T15:13:49;23.50;64.80
16513;DHT22;8369;48.030;11.598;2022-07-09T15:16:15;23.30;64.70
16513;DHT22;8369;48.030;11.598;2022-07-09T15:18:42;23.20;65.10
16513;DHT22;8369;48.030;11.598;2022-07-09T15:21:09;23.00;65.90
16513;DHT22;8369;48.030;11.598;2022-07-09T15:23:37;23.00;66.30
16513;DHT22;8369;48.030;11.598;2022-07-09T15:26:06;22.90;66.50
16513;DHT22;8369;48.030;11.598;2022-07-09T15:28:34;23.00;67.10
16513;DHT22;8369;48.030;11.598;2022-07-09T15:31:01;23.00;67.60
16513;DHT22;8369;48.030;11.598;2022-07-09T15:33:28;23.10;67.40
16513;DHT22;8369;48.030;11.598;2022-07-09T15:35:54;23.10;67.10
16513;DHT22;8369;48.030;11.598;2022-07-09T15:38:21;23.20;66.30
16513;DHT22;8369;48.030;11.598;2022-07-09T15:41:11;23.20;65.90